Time;durP1;ratioP1;P1;durP2;ratioP2;P2;SDS_P1;SDS_P2;PMS_P1;PMS_P2;Temp;Humidity;BMP_temperature;BMP_pressure;BME280_temperature;BME280_humidity;BME280_pressure;Samples;Min_cycle;Max_cycle;Signal;HPM_P1;HPM_P2
2022/01/27 00:05:25;;;;;;;27.93;12.87;;;5.80;99.90;;;;;;5050814;28;20493;-74
2022/01/27 00:08:18;;;;;;;26.20;12.63;;;5.70;99.90;;;;;;5046959;28;20061;-76
2022/01/27 00:11:01;;;;;;;26.50;12.23;;;5.70;99.90;;;;;;5049460;28;20301;-76
2022/01/27 00:13:32;;;;;;;28.58;11.93;;;5.70;99.90;;;;;;5031089;28;20055;-74
2022/01/27 00:16:25;;;;;;;26.20;11.75;;;5.70;99.90;;;;;;5048326;28;20055;-75
2022/01/27 00:18:51;;;;;;;25.70;10.32;;;5.70;99.90;;;;;;5048580;28;20428;-76
2022/01/27 00:21:21;;;;;;;21.65;9.75;;;5.80;99.90;;;;;;5048154;28;20048;-76
2022/01/27 00:23:50;;;;;;;28.95;12.00;;;5.80;99.90;;;;;;5049512;28;20049;-75
2022/01/27 00:26:18;;;;;;;27.02;11.55;;;5.80;99.90;;;;;;5046254;28;20068;-75
2022/01/27 00:28:47;;;;;;;23.92;11.25;;;5.80;99.90;;;;;;5030577;28;20045;-75
2022/01/27 00:31:16;;;;;;;28.65;11.45;;;5.90;99.90;;;;;;5047594;28;20064;-75
2022/01/27 00:33:46;;;;;;;20.15;9.68;;;6.10;99.90;;;;;;5048954;28;20049;-76
2022/01/27 00:36:14;;;;;;;23.08;9.98;;;6.00;99.90;;;;;;5033479;28;20068;-74
2022/01/27 00:38:42;;;;;;;23.45;10.90;;;6.00;99.90;;;;;;5029541;28;20049;-74
2022/01/27 00:41:11;;;;;;;23.00;10.80;;;6.00;99.90;;;;;;5029471;28;20060;-75
2022/01/27 00:43:39;;;;;;;23.65;9.95;;;6.10;99.90;;;;;;5030134;28;20045;-75
2022/01/27 00:46:12;;;;;;;21.55;9.60;;;6.10;99.90;;;;;;5049209;28;20056;-75
2022/01/27 00:48:40;;;;;;;24.67;11.38;;;6.20;99.90;;;;;;5067384;28;20045;-75
2022/01/27 00:51:10;;;;;;;24.05;10.70;;;6.10;99.90;;;;;;5052265;28;20045;-75
2022/01/27 00:53:50;;;;;;;24.80;10.45;;;6.20;99.90;;;;;;5051174;28;20045;-76
2022/01/27 01:01:38;;;;;;;25.98;11.55;;;6.30;99.90;;;;;;5066904;28;20063;-75
2022/01/27 01:04:09;;;;;;;26.35;10.93;;;6.30;99.90;;;;;;5067939;28;20527;-76
2022/01/27 01:06:43;;;;;;;23.98;11.25;;;6.50;99.90;;;;;;5044765;28;20054;-75
2022/01/27 01:33:13;;;;;;;25.80;9.80;;;6.40;99.90;;;;;;5030962;28;20048;-77
2022/01/27 01:35:50;;;;;;;27.00;11.57;;;6.40;99.90;;;;;;5045788;28;20061;-75
2022/01/27 01:38:25;;;;;;;24.25;10.85;;;6.40;99.90;;;;;;5047072;28;20056;-75
2022/01/27 01:40:53;;;;;;;27.33;11.57;;;6.40;99.90;;;;;;5025674;28;20821;-75
2022/01/27 01:43:21;;;;;;;22.88;9.75;;;6.40;99.90;;;;;;5043375;28;20113;-76
2022/01/27 01:45:50;;;;;;;25.27;11.38;;;6.40;99.90;;;;;;5037139;28;20516;-75
2022/01/27 01:48:18;;;;;;;24.40;12.20;;;6.40;99.90;;;;;;5040071;28;20405;-75
2022/01/27 01:50:47;;;;;;;26.48;10.48;;;6.40;99.90;;;;;;5010333;28;20929;-76
2022/01/27 01:53:16;;;;;;;22.17;11.10;;;6.40;99.90;;;;;;5025636;28;20049;-75
2022/01/27 01:55:44;;;;;;;25.52;10.63;;;6.40;99.90;;;;;;5027351;28;20064;-76
2022/01/27 01:58:11;;;;;;;24.15;11.10;;;6.40;99.90;;;;;;5026969;28;20057;-77
2022/01/27 02:00:39;;;;;;;25.10;11.25;;;6.40;99.90;;;;;;5027340;28;20057;-75
2022/01/27 02:03:07;;;;;;;25.05;9.95;;;6.40;99.90;;;;;;5061682;28;20374;-75
2022/01/27 02:05:40;;;;;;;22.00;10.68;;;6.40;99.90;;;;;;5045776;28;20068;-76
2022/01/27 02:19:27;;;;;;;22.05;9.93;;;6.40;99.90;;;;;;5047288;28;20045;-74
2022/01/27 02:22:02;;;;;;;21.40;9.93;;;6.40;99.90;;;;;;5048043;28;20056;-77
2022/01/27 02:24:32;;;;;;;20.27;11.20;;;6.40;99.90;;;;;;5046783;28;20041;-75
2022/01/27 02:27:01;;;;;;;19.80;10.48;;;6.40;99.90;;;;;;5047468;28;20045;-75
2022/01/27 02:29:29;;;;;;;26.35;10.82;;;6.40;99.90;;;;;;5046845;28;20427;-76
2022/01/27 02:31:58;;;;;;;21.40;10.43;;;6.40;99.90;;;;;;5028143;28;20053;-76
2022/01/27 02:34:26;;;;;;;21.38;10.13;;;6.40;99.90;;;;;;5045190;28;20507;-75
2022/01/27 02:36:54;;;;;;;19.85;9.48;;;6.50;99.90;;;;;;5045133;28;20053;-78
2022/01/27 02:39:22;;;;;;;21.33;9.27;;;6.60;99.90;;;;;;5045954;28;20493;-76
2022/01/27 02:41:50;;;;;;;22.92;10.32;;;6.60;99.90;;;;;;5045161;28;20045;-77
2022/01/27 02:44:34;;;;;;;24.20;10.82;;;6.70;99.90;;;;;;5044738;28;20061;-76
2022/01/27 02:47:02;;;;;;;22.13;9.48;;;6.80;99.90;;;;;;5061785;28;20049;-76
2022/01/27 02:49:30;;;;;;;23.08;10.18;;;6.90;99.90;;;;;;5046662;28;20045;-74
2022/01/27 02:51:58;;;;;;;23.10;9.90;;;6.90;99.90;;;;;;5062161;28;20053;-77
2022/01/27 02:54:25;;;;;;;23.33;9.27;;;6.90;99.90;;;;;;5046549;28;20053;-75
2022/01/27 02:57:12;;;;;;;20.13;8.38;;;6.90;99.90;;;;;;5047582;28;20060;-74
2022/01/27 02:59:40;;;;;;;20.23;8.90;;;6.90;99.90;;;;;;5061757;28;20049;-75
2022/01/27 03:02:08;;;;;;;19.88;8.80;;;6.90;99.90;;;;;;5049850;28;20052;-76
2022/01/27 03:04:36;;;;;;;20.67;8.80;;;6.90;99.90;;;;;;5058704;28;20586;-76
2022/01/27 03:07:05;;;;;;;;;;;6.80;99.90;;;;;;5061550;28;20041;-76
2022/01/27 03:09:34;;;;;;;20.98;8.38;;;6.80;99.90;;;;;;5061347;28;19925;-74
2022/01/27 03:12:07;;;;;;;22.13;9.40;;;6.80;99.90;;;;;;5042010;28;20049;-73
2022/01/27 03:14:35;;;;;;;15.00;7.95;;;6.80;99.90;;;;;;5045546;28;20362;-73
2022/01/27 03:17:05;;;;;;;22.75;9.43;;;6.70;99.90;;;;;;5045730;28;20658;-75
2022/01/27 03:19:34;;;;;;;17.92;8.43;;;6.80;99.90;;;;;;5041618;28;20481;-72
2022/01/27 03:22:03;;;;;;;16.30;8.52;;;6.90;99.90;;;;;;5029873;28;20170;-74
2022/01/27 03:24:32;;;;;;;22.80;8.75;;;6.90;99.90;;;;;;5045489;28;20409;-74
2022/01/27 03:27:00;;;;;;;21.27;8.30;;;7.00;99.90;;;;;;5028609;28;20489;-74
2022/01/27 03:29:28;;;;;;;19.38;8.02;;;7.00;99.90;;;;;;5029536;28;20430;-73
2022/01/27 03:31:56;;;;;;;;;;;7.10;99.90;;;;;;5030247;28;20045;-77
2022/01/27 03:34:24;;;;;;;19.00;8.05;;;7.10;99.90;;;;;;5030411;28;20219;-74
2022/01/27 03:36:51;;;;;;;18.60;8.23;;;7.20;99.90;;;;;;5040825;28;20063;-74
2022/01/27 03:39:21;;;;;;;18.20;8.45;;;7.30;99.90;;;;;;5051723;28;20501;-75
2022/01/27 03:41:51;;;;;;;21.67;8.52;;;7.20;99.90;;;;;;5043787;28;20045;-75
2022/01/27 03:44:20;;;;;;;15.65;7.85;;;7.30;99.90;;;;;;5046031;28;20517;-76
2022/01/27 03:46:50;;;;;;;16.38;8.00;;;7.30;99.90;;;;;;5034834;28;20049;-74
2022/01/27 03:49:18;;;;;;;18.33;8.07;;;7.30;99.90;;;;;;5044996;28;20057;-76
2022/01/27 03:51:46;;;;;;;18.90;7.85;;;7.30;99.90;;;;;;5033519;28;20514;-75
2022/01/27 03:54:15;;;;;;;18.85;7.97;;;7.40;99.90;;;;;;5029906;28;20056;-74
2022/01/27 03:56:43;;;;;;;17.80;7.55;;;7.40;99.90;;;;;;5046637;28;20060;-76
2022/01/27 03:59:11;;;;;;;;;;;7.40;99.90;;;;;;5049609;28;20073;-76
2022/01/27 04:01:39;;;;;;;17.10;7.47;;;7.40;99.90;;;;;;5049800;28;20296;-76
2022/01/27 04:04:07;;;;;;;18.10;8.13;;;7.40;99.90;;;;;;5031767;28;20057;-75
2022/01/27 04:06:39;;;;;;;;;;;7.50;99.90;;;;;;5044338;28;20052;-74
2022/01/27 04:09:09;;;;;;;18.05;6.97;;;7.40;99.90;;;;;;5050505;28;19925;-74
2022/01/27 04:11:39;;;;;;;16.20;7.05;;;7.50;99.90;;;;;;5039557;28;20049;-77
2022/01/27 04:14:08;;;;;;;14.98;7.40;;;7.50;99.90;;;;;;5029999;28;20041;-75
2022/01/27 04:16:35;;;;;;;16.77;7.18;;;7.50;99.90;;;;;;5045756;28;20052;-74
2022/01/27 04:19:03;;;;;;;13.10;7.45;;;7.50;99.90;;;;;;5051456;28;20784;-75
2022/01/27 04:21:31;;;;;;;17.08;7.28;;;7.50;99.90;;;;;;5049910;28;20083;-76
2022/01/27 04:23:59;;;;;;;19.20;7.78;;;7.50;99.90;;;;;;5061060;28;20052;-76
2022/01/27 04:26:36;;;;;;;13.88;7.28;;;7.50;99.90;;;;;;5065109;28;20069;-74
2022/01/27 04:29:04;;;;;;;15.85;6.65;;;7.50;99.90;;;;;;5053373;28;20059;-75
2022/01/27 04:31:32;;;;;;;13.35;6.70;;;7.60;99.90;;;;;;5051248;28;20061;-73
2022/01/27 04:34:00;;;;;;;;;;;7.60;99.90;;;;;;5035454;28;20049;-74
2022/01/27 04:36:32;;;;;;;15.23;6.75;;;7.60;99.90;;;;;;5019800;28;19925;-76
2022/01/27 04:39:10;;;;;;;12.38;6.40;;;7.70;99.90;;;;;;5050411;28;20053;-74
2022/01/27 04:42:07;;;;;;;17.75;6.22;;;7.60;99.90;;;;;;5050068;28;20052;-76
2022/01/27 04:44:38;;;;;;;14.13;6.20;;;7.70;99.90;;;;;;5049591;28;20041;-74
2022/01/27 04:47:16;;;;;;;16.10;6.13;;;7.60;99.90;;;;;;5032031;28;20053;-76
2022/01/27 04:49:45;;;;;;;12.82;6.22;;;7.70;99.90;;;;;;5031590;28;20056;-75
2022/01/27 04:52:13;;;;;;;16.02;6.38;;;7.80;99.90;;;;;;5049865;28;20586;-75
2022/01/27 04:55:06;;;;;;;12.65;6.03;;;7.80;99.90;;;;;;5051829;28;20049;-76
2022/01/27 04:57:30;;;;;;;10.90;5.60;;;7.80;99.90;;;;;;5051857;28;20044;-75
2022/01/27 04:59:59;;;;;;;17.55;5.93;;;7.90;99.90;;;;;;5048486;28;20560;-74
2022/01/27 05:02:41;;;;;;;13.57;5.68;;;7.80;99.90;;;;;;5049356;28;20313;-76
2022/01/27 05:05:09;;;;;;;12.70;5.03;;;7.80;99.90;;;;;;5045973;28;20060;-76
2022/01/27 05:08:00;;;;;;;14.57;5.40;;;7.80;99.90;;;;;;5048362;28;20071;-74
2022/01/27 05:10:32;;;;;;;9.00;4.70;;;7.80;99.90;;;;;;5049703;28;20056;-75
2022/01/27 05:13:08;;;;;;;13.35;5.38;;;7.80;99.90;;;;;;5051960;28;20045;-74
2022/01/27 05:15:42;;;;;;;12.05;5.15;;;7.80;99.90;;;;;;5050274;28;20679;-72
2022/01/27 05:18:11;;;;;;;10.02;5.10;;;7.80;99.90;;;;;;5048068;28;20045;-75
2022/01/27 05:20:39;;;;;;;12.30;5.38;;;7.80;99.90;;;;;;5047731;28;20501;-74
2022/01/27 05:23:07;;;;;;;13.60;5.35;;;7.80;99.90;;;;;;5048681;28;20076;-74
2022/01/27 05:25:35;;;;;;;14.20;5.63;;;7.70;99.90;;;;;;5047289;28;20049;-73
2022/01/27 05:28:03;;;;;;;14.05;4.82;;;7.80;99.90;;;;;;5047476;28;20049;-73
2022/01/27 05:30:30;;;;;;;11.68;4.53;;;7.80;99.90;;;;;;5047366;28;20041;-75
2022/01/27 05:32:58;;;;;;;11.73;5.20;;;7.80;99.90;;;;;;5048089;28;20044;-75
2022/01/27 05:35:26;;;;;;;12.52;4.93;;;7.80;99.90;;;;;;5040971;28;20783;-74
2022/01/27 05:37:54;;;;;;;12.52;4.85;;;7.80;99.90;;;;;;5040632;28;20052;-76
2022/01/27 05:40:22;;;;;;;13.38;4.55;;;7.90;99.90;;;;;;5026903;28;20054;-74
2022/01/27 05:42:49;;;;;;;15.68;5.20;;;7.90;99.90;;;;;;5043517;28;20054;-76
2022/01/27 05:45:17;;;;;;;10.30;4.55;;;7.90;99.90;;;;;;5028589;28;20064;-75
2022/01/27 05:47:45;;;;;;;12.13;5.38;;;7.90;99.90;;;;;;5041528;28;20054;-76
2022/01/27 05:50:15;;;;;;;11.00;5.05;;;7.90;99.90;;;;;;5043492;28;20044;-75
2022/01/27 05:52:42;;;;;;;12.70;5.10;;;7.90;99.90;;;;;;5047222;28;20053;-75
2022/01/27 05:55:10;;;;;;;10.63;4.45;;;8.10;99.90;;;;;;5061322;28;20038;-77
2022/01/27 05:57:38;;;;;;;12.52;5.15;;;7.80;99.90;;;;;;5039275;28;20275;-76
2022/01/27 06:00:06;;;;;;;12.88;4.63;;;7.90;99.90;;;;;;5050651;28;20044;-76
2022/01/27 06:02:40;;;;;;;17.05;5.50;;;7.90;99.90;;;;;;5047336;28;20397;-76
2022/01/27 06:05:09;;;;;;;12.70;4.93;;;7.90;99.90;;;;;;5042565;28;20060;-76
2022/01/27 06:07:37;;;;;;;12.35;5.03;;;7.90;99.90;;;;;;5038418;28;20061;-75
2022/01/27 06:10:05;;;;;;;15.98;5.70;;;7.90;99.90;;;;;;5025597;28;20401;-75
2022/01/27 06:12:33;;;;;;;14.88;5.50;;;7.90;99.90;;;;;;5026897;28;20648;-76
2022/01/27 06:15:01;;;;;;;16.02;5.00;;;7.90;99.90;;;;;;5028708;28;20045;-76
2022/01/27 06:17:29;;;;;;;15.57;5.20;;;7.90;99.90;;;;;;5047561;28;20053;-75
2022/01/27 06:19:57;;;;;;;;;;;7.90;99.90;;;;;;5046114;28;20049;-75
2022/01/27 06:22:25;;;;;;;11.02;4.75;;;7.90;99.90;;;;;;5031565;28;20057;-76
2022/01/27 06:24:53;;;;;;;17.67;5.47;;;7.90;99.90;;;;;;5047658;28;20201;-74
2022/01/27 06:27:21;;;;;;;17.92;5.18;;;7.90;99.90;;;;;;5065120;28;20052;-74
2022/01/27 06:29:48;;;;;;;11.15;4.75;;;7.90;99.90;;;;;;5049375;28;20060;-75
2022/01/27 06:32:16;;;;;;;16.55;5.30;;;8.00;99.90;;;;;;5050333;28;20731;-74
2022/01/27 06:34:44;;;;;;;16.15;5.43;;;8.00;99.90;;;;;;5051728;28;20057;-74
2022/01/27 06:37:12;;;;;;;11.88;4.70;;;7.90;99.90;;;;;;5051619;28;20055;-74
2022/01/27 06:39:41;;;;;;;10.32;5.03;;;7.90;99.90;;;;;;5051929;28;20048;-76
2022/01/27 06:42:09;;;;;;;13.75;5.38;;;7.90;99.90;;;;;;5017918;28;20064;-74
2022/01/27 06:44:37;;;;;;;16.88;6.35;;;7.90;99.90;;;;;;5050529;28;20037;-77
2022/01/27 06:47:05;;;;;;;16.23;5.70;;;7.90;99.90;;;;;;5053123;28;20049;-74
2022/01/27 06:49:34;;;;;;;16.17;5.80;;;7.90;99.90;;;;;;5068378;28;20500;-75
2022/01/27 06:52:06;;;;;;;12.65;5.32;;;8.00;99.90;;;;;;5052755;28;20389;-74
2022/01/27 06:54:34;;;;;;;15.75;5.35;;;8.00;99.90;;;;;;5065506;28;20049;-76
2022/01/27 06:57:02;;;;;;;14.68;5.30;;;7.90;99.90;;;;;;5054315;28;20052;-75
2022/01/27 06:59:30;;;;;;;18.77;5.80;;;7.90;99.90;;;;;;5053269;28;20056;-74
2022/01/27 07:01:58;;;;;;;18.45;5.30;;;7.90;99.90;;;;;;5051134;28;20049;-73
2022/01/27 07:04:26;;;;;;;11.80;5.70;;;8.00;99.90;;;;;;5033080;28;20269;-74
2022/01/27 07:06:54;;;;;;;16.38;5.20;;;8.00;99.90;;;;;;5046403;28;20045;-73
2022/01/27 07:09:22;;;;;;;13.10;5.40;;;8.00;99.90;;;;;;5041534;28;20040;-74
2022/01/27 07:11:49;;;;;;;14.95;5.57;;;8.00;99.90;;;;;;5051062;28;20564;-74
2022/01/27 07:14:18;;;;;;;14.80;5.38;;;8.00;99.90;;;;;;5049648;28;20057;-73
2022/01/27 07:16:46;;;;;;;12.57;5.30;;;8.00;99.90;;;;;;5050512;28;20553;-76
2022/01/27 07:19:14;;;;;;;;;;;8.00;99.90;;;;;;5041383;28;20413;-74
2022/01/27 07:21:42;;;;;;;13.10;4.57;;;8.00;99.90;;;;;;5063076;28;20744;-75
2022/01/27 07:24:10;;;;;;;14.52;5.35;;;8.00;99.90;;;;;;5032462;28;20544;-75
2022/01/27 07:26:37;;;;;;;16.67;5.72;;;8.10;99.90;;;;;;5032699;28;20041;-75
2022/01/27 07:29:05;;;;;;;14.05;5.40;;;8.00;99.90;;;;;;5063005;28;20611;-74
2022/01/27 07:31:34;;;;;;;14.40;5.60;;;8.00;99.90;;;;;;5030843;28;20474;-74
2022/01/27 07:34:02;;;;;;;11.95;5.15;;;8.00;99.90;;;;;;5029179;28;20045;-73
2022/01/27 07:36:31;;;;;;;14.05;5.72;;;8.10;99.90;;;;;;5048861;28;20255;-73
2022/01/27 07:39:01;;;;;;;10.70;5.43;;;8.10;99.90;;;;;;5035460;28;20240;-76
2022/01/27 07:41:29;;;;;;;13.15;5.10;;;8.10;99.90;;;;;;5047271;28;20460;-75
2022/01/27 07:43:56;;;;;;;15.65;5.82;;;8.10;99.90;;;;;;5030688;28;20516;-74
2022/01/27 07:46:24;;;;;;;13.65;5.13;;;8.10;99.90;;;;;;5038566;28;20532;-74
2022/01/27 07:48:52;;;;;;;;;;;8.10;99.90;;;;;;5044596;28;20046;-75
2022/01/27 07:51:20;;;;;;;17.08;5.63;;;8.10;99.90;;;;;;5027615;28;19921;-73
2022/01/27 07:53:48;;;;;;;11.95;5.43;;;8.10;99.90;;;;;;5044339;28;20497;-75
2022/01/27 07:56:30;;;;;;;14.73;5.30;;;8.10;99.90;;;;;;5047479;28;20041;-73
2022/01/27 07:58:58;;;;;;;12.45;4.75;;;8.10;99.90;;;;;;5047539;28;20052;-75
2022/01/27 08:01:26;;;;;;;13.95;5.28;;;8.10;99.90;;;;;;5048181;28;20049;-74
2022/01/27 08:03:54;;;;;;;12.27;5.00;;;8.10;99.90;;;;;;5048335;28;20041;-74
2022/01/27 08:06:22;;;;;;;14.20;5.28;;;8.10;99.90;;;;;;5036747;28;20048;-73
2022/01/27 08:08:50;;;;;;;12.18;5.07;;;8.10;99.90;;;;;;5047774;28;20033;-75
2022/01/27 08:11:19;;;;;;;14.38;5.88;;;8.20;99.90;;;;;;5044860;28;20045;-74
2022/01/27 08:13:47;;;;;;;13.40;5.88;;;8.20;99.90;;;;;;5045773;28;20547;-74
2022/01/27 08:16:14;;;;;;;16.88;6.15;;;8.20;99.90;;;;;;5048236;28;20041;-74
2022/01/27 08:18:46;;;;;;;11.57;5.82;;;8.20;99.90;;;;;;5039116;28;20057;-74
2022/01/27 08:21:14;;;;;;;12.15;5.20;;;8.20;99.90;;;;;;5028964;28;20045;-74
2022/01/27 08:23:43;;;;;;;16.02;5.50;;;8.30;99.90;;;;;;5031301;28;20054;-74
2022/01/27 08:26:26;;;;;;;14.55;6.18;;;8.30;99.90;;;;;;5040890;28;20069;-76
2022/01/27 08:29:06;;;;;;;17.75;5.32;;;8.30;99.90;;;;;;5046577;28;20119;-75
2022/01/27 08:31:42;;;;;;;14.95;6.07;;;8.30;99.90;;;;;;5049171;28;20060;-73
2022/01/27 08:34:17;;;;;;;12.25;5.40;;;8.30;99.90;;;;;;5048859;28;20053;-72
2022/01/27 08:36:45;;;;;;;13.30;5.30;;;8.40;99.90;;;;;;5058407;28;20041;-74
2022/01/27 08:39:13;;;;;;;13.13;5.00;;;8.40;99.90;;;;;;5048042;28;20051;-74
2022/01/27 08:41:41;;;;;;;13.38;5.28;;;8.40;99.90;;;;;;5037713;28;20068;-73
2022/01/27 08:44:10;;;;;;;12.23;5.25;;;8.40;99.90;;;;;;5047443;28;20408;-74
2022/01/27 08:46:38;;;;;;;11.63;5.10;;;8.30;99.90;;;;;;5040383;28;20045;-73
2022/01/27 08:49:09;;;;;;;10.30;5.00;;;8.40;99.90;;;;;;5026218;28;20056;-74
2022/01/27 08:51:37;;;;;;;10.55;4.85;;;8.50;99.90;;;;;;5042960;28;20048;-73
2022/01/27 08:54:05;;;;;;;;;;;8.50;99.90;;;;;;5045951;28;20049;-74
2022/01/27 08:56:33;;;;;;;11.13;4.90;;;8.50;99.90;;;;;;5034030;28;19925;-75
2022/01/27 08:59:01;;;;;;;12.50;4.70;;;8.50;99.90;;;;;;5025850;28;20456;-76
2022/01/27 09:01:29;;;;;;;;;;;8.50;99.90;;;;;;5046728;28;20478;-76
2022/01/27 09:03:57;;;;;;;9.75;4.85;;;8.50;99.90;;;;;;5027614;28;19925;-75
2022/01/27 09:06:28;;;;;;;9.05;5.03;;;8.60;99.90;;;;;;5039169;28;20040;-76
2022/01/27 09:08:57;;;;;;;13.05;6.18;;;8.60;99.90;;;;;;5041741;28;20064;-75
2022/01/27 09:11:26;;;;;;;14.77;5.68;;;8.60;99.90;;;;;;5035120;28;20052;-76
2022/01/27 09:13:55;;;;;;;14.38;5.50;;;8.60;99.90;;;;;;5053703;28;20063;-75
2022/01/27 09:16:27;;;;;;;15.93;6.25;;;8.60;99.90;;;;;;5036131;28;20048;-77
2022/01/27 09:19:15;;;;;;;9.05;5.22;;;8.70;99.90;;;;;;5045534;28;20045;-76
2022/01/27 09:21:45;;;;;;;12.85;5.18;;;8.70;99.90;;;;;;5046034;28;20056;-75
2022/01/27 09:24:19;;;;;;;12.02;4.53;;;8.70;99.90;;;;;;5029334;28;20053;-76
2022/01/27 09:29:16;;;;;;;;;;;8.70;99.90;;;;;;5050445;28;20044;-76
2022/01/27 09:31:45;;;;;;;15.82;5.20;;;8.70;99.90;;;;;;5046505;28;19944;-75
2022/01/27 09:34:14;;;;;;;13.50;5.13;;;8.90;99.90;;;;;;5050158;28;20352;-74
2022/01/27 09:36:42;;;;;;;8.98;4.63;;;8.80;99.90;;;;;;5048771;28;20105;-79
2022/01/27 09:39:10;;;;;;;11.13;4.93;;;8.80;99.90;;;;;;5033518;28;20041;-80
2022/01/27 09:41:41;;;;;;;11.90;4.95;;;8.80;99.90;;;;;;5030845;28;20045;-80
2022/01/27 09:44:12;;;;;;;11.15;4.80;;;8.80;99.90;;;;;;5045524;28;20053;-78
2022/01/27 09:46:43;;;;;;;11.43;5.10;;;8.90;99.90;;;;;;5042669;28;20067;-79
2022/01/27 09:49:17;;;;;;;14.95;4.90;;;8.90;99.90;;;;;;5043572;28;20139;-75
2022/01/27 09:51:47;;;;;;;10.85;4.60;;;8.90;99.90;;;;;;5045300;28;20051;-74
2022/01/27 09:54:16;;;;;;;15.20;5.10;;;8.90;99.90;;;;;;5022691;28;20054;-74
2022/01/27 09:56:44;;;;;;;10.95;4.70;;;8.90;99.90;;;;;;5053857;28;20551;-80
2022/01/27 09:59:16;;;;;;;10.15;4.95;;;9.00;99.90;;;;;;5029477;28;20049;-79
2022/01/27 10:01:54;;;;;;;;;;;9.00;99.90;;;;;;5047916;28;20053;-77
2022/01/27 10:04:24;;;;;;;;;;;9.00;99.90;;;;;;5047214;28;20439;-79
2022/01/27 10:06:57;;;;;;;11.50;4.88;;;9.00;99.90;;;;;;5045842;28;19932;-78
2022/01/27 10:09:29;;;;;;;14.20;4.43;;;9.00;99.90;;;;;;5043417;28;20051;-78
2022/01/27 10:12:02;;;;;;;10.75;4.40;;;9.00;99.90;;;;;;5041165;28;20050;-78
2022/01/27 10:14:37;;;;;;;11.05;4.85;;;9.00;99.90;;;;;;5045414;28;20044;-78
2022/01/27 10:17:12;;;;;;;10.82;4.63;;;9.10;99.90;;;;;;5044447;28;20048;-77
2022/01/27 10:19:40;;;;;;;12.57;4.78;;;9.10;99.90;;;;;;5043939;28;20049;-78
2022/01/27 10:22:13;;;;;;;;;;;9.10;99.90;;;;;;5044474;28;20045;-75
2022/01/27 10:24:42;;;;;;;10.30;4.07;;;9.10;99.90;;;;;;5045991;28;19940;-79
2022/01/27 10:27:28;;;;;;;12.23;4.43;;;9.20;99.90;;;;;;5048158;28;20052;-73
2022/01/27 10:32:44;;;;;;;10.25;4.35;;;9.20;99.90;;;;;;5037397;28;20045;-73
2022/01/27 10:35:16;;;;;;;10.95;4.65;;;9.20;99.90;;;;;;5025606;28;20061;-75
2022/01/27 10:37:53;;;;;;;11.35;4.72;;;9.30;99.90;;;;;;5039791;28;20049;-73
2022/01/27 10:40:28;;;;;;;10.23;4.55;;;9.30;99.90;;;;;;5027213;28;20421;-74
2022/01/27 10:43:02;;;;;;;9.80;4.60;;;9.40;99.90;;;;;;5043690;28;20068;-73
2022/01/27 10:45:31;;;;;;;12.90;4.50;;;9.40;99.90;;;;;;5041270;28;20045;-75
2022/01/27 10:48:15;;;;;;;11.50;4.78;;;9.40;99.90;;;;;;5031374;28;20394;-75
2022/01/27 10:51:06;;;;;;;11.93;4.65;;;9.40;99.90;;;;;;5026323;28;20049;-73
2022/01/27 10:54:19;;;;;;;13.93;4.38;;;9.50;99.90;;;;;;5026895;28;20502;-72
2022/01/27 10:56:46;;;;;;;11.95;4.15;;;9.60;99.90;;;;;;5010109;28;20508;-75
2022/01/27 10:59:19;;;;;;;9.35;4.18;;;9.60;99.90;;;;;;5035816;28;20056;-73
2022/01/27 11:01:50;;;;;;;11.43;5.10;;;9.70;99.90;;;;;;5047017;28;20048;-73
2022/01/27 11:04:20;;;;;;;9.63;4.45;;;9.70;99.90;;;;;;5045121;28;20068;-76
2022/01/27 11:07:00;;;;;;;9.95;3.65;;;9.70;99.90;;;;;;5045198;28;20053;-74
2022/01/27 11:09:35;;;;;;;11.95;3.90;;;9.80;99.90;;;;;;5044569;28;20053;-74
2022/01/27 11:12:11;;;;;;;8.82;3.85;;;9.80;99.90;;;;;;5027633;28;20049;-73
2022/01/27 11:14:40;;;;;;;10.70;3.90;;;9.80;99.90;;;;;;5042167;28;20045;-74
2022/01/27 11:17:20;;;;;;;11.73;3.83;;;9.90;99.90;;;;;;5027089;28;20053;-75
2022/01/27 11:27:47;;;;;;;10.65;3.88;;;10.10;99.90;;;;;;5026538;28;20049;-74
2022/01/27 11:30:58;;;;;;;10.18;4.05;;;10.20;99.90;;;;;;5024324;28;20490;-75
2022/01/27 11:33:34;;;;;;;10.75;3.80;;;10.30;99.90;;;;;;5028343;28;20048;-71
2022/01/27 11:36:09;;;;;;;9.80;4.03;;;10.40;99.90;;;;;;5036654;28;20049;-73
2022/01/27 11:38:39;;;;;;;8.27;4.13;;;10.40;99.90;;;;;;5043346;28;20041;-75
2022/01/27 11:41:27;;;;;;;5.97;3.28;;;10.50;99.90;;;;;;5047402;28;20052;-75
2022/01/27 11:44:22;;;;;;;6.82;3.20;;;10.60;99.90;;;;;;5039057;28;20077;-75
2022/01/27 11:47:12;;;;;;;7.40;3.17;;;10.80;99.90;;;;;;5043876;28;20049;-75
2022/01/27 11:49:55;;;;;;;10.00;2.90;;;10.90;99.90;;;;;;5029979;28;20045;-73
2022/01/27 11:52:28;;;;;;;11.27;3.40;;;11.00;99.90;;;;;;5029846;28;20324;-74
2022/01/27 11:55:19;;;;;;;9.07;3.25;;;11.10;99.90;;;;;;5043045;28;20056;-73
2022/01/27 11:57:48;;;;;;;5.55;3.15;;;11.20;99.90;;;;;;5043164;28;20095;-74
2022/01/27 12:00:24;;;;;;;7.43;3.10;;;11.30;99.90;;;;;;5048035;28;20056;-75
2022/01/27 12:03:04;;;;;;;6.80;3.00;;;11.40;99.90;;;;;;5031467;28;20496;-76
2022/01/27 12:05:39;;;;;;;6.22;3.03;;;11.50;99.90;;;;;;5036139;28;20911;-76
2022/01/27 12:08:13;;;;;;;7.50;3.10;;;11.50;99.90;;;;;;5028146;28;20050;-76
2022/01/27 12:10:45;;;;;;;5.60;2.25;;;11.50;99.90;;;;;;5012592;28;20053;-76
2022/01/27 12:16:37;;;;;;;7.40;3.08;;;11.40;99.90;;;;;;5049164;28;20049;-78
2022/01/27 12:19:10;;;;;;;10.05;3.15;;;11.30;99.90;;;;;;5042324;28;20064;-75
2022/01/27 12:21:45;;;;;;;9.60;3.42;;;11.40;99.90;;;;;;5031109;28;20683;-77
2022/01/27 12:24:18;;;;;;;7.70;3.35;;;11.40;99.90;;;;;;5039433;28;20068;-79
2022/01/27 12:27:04;;;;;;;5.45;2.58;;;11.40;99.90;;;;;;5048256;28;20068;-76
2022/01/27 12:29:40;;;;;;;6.70;2.90;;;11.40;99.90;;;;;;5046045;28;20049;-76
2022/01/27 12:32:17;;;;;;;7.60;2.90;;;11.40;99.90;;;;;;5047936;28;20056;-78
2022/01/27 12:34:47;;;;;;;7.78;3.10;;;11.40;99.90;;;;;;5063683;28;20485;-77
2022/01/27 12:37:18;;;;;;;8.73;2.97;;;11.40;99.90;;;;;;5044049;28;20481;-79
2022/01/27 12:39:57;;;;;;;8.23;3.20;;;11.40;99.90;;;;;;5049222;28;20057;-77
2022/01/27 12:42:39;;;;;;;7.18;3.20;;;11.40;99.90;;;;;;5047842;28;20052;-77
2022/01/27 12:45:13;;;;;;;7.93;3.42;;;11.40;99.90;;;;;;5032001;28;20056;-77
2022/01/27 12:47:44;;;;;;;8.48;3.95;;;11.40;99.90;;;;;;5043235;28;20049;-78
2022/01/27 12:50:16;;;;;;;8.60;4.03;;;11.30;99.90;;;;;;5037171;28;20079;-78
2022/01/27 12:52:47;;;;;;;8.27;4.00;;;11.30;99.90;;;;;;5050140;28;20051;-77
2022/01/27 12:55:22;;;;;;;7.65;4.00;;;11.30;99.90;;;;;;5051529;28;20220;-76
2022/01/27 12:58:03;;;;;;;7.82;4.20;;;11.20;99.90;;;;;;5050653;28;20060;-78
2022/01/27 13:00:50;;;;;;;8.95;4.10;;;11.20;99.90;;;;;;5037011;28;20144;-76
2022/01/27 13:03:24;;;;;;;8.80;3.80;;;11.10;99.90;;;;;;5040020;28;20497;-78
2022/01/27 13:05:53;;;;;;;12.07;3.70;;;11.20;99.90;;;;;;5027169;28;20048;-78
2022/01/27 13:08:31;;;;;;;8.88;3.42;;;11.30;99.90;;;;;;5044069;28;20160;-77
2022/01/27 13:11:10;;;;;;;6.50;3.63;;;11.30;99.90;;;;;;5048108;28;20045;-75
2022/01/27 13:13:40;;;;;;;7.88;3.78;;;11.50;99.90;;;;;;5048779;28;20045;-77
2022/01/27 13:16:17;;;;;;;8.30;3.60;;;11.50;99.90;;;;;;5034216;28;20053;-76
2022/01/27 13:19:07;;;;;;;7.05;3.72;;;11.60;99.90;;;;;;5031491;28;20120;-77
2022/01/27 13:21:37;;;;;;;7.22;3.85;;;11.60;99.90;;;;;;5043442;28;20044;-77
2022/01/27 13:24:11;;;;;;;8.65;3.67;;;11.60;99.90;;;;;;5032562;28;20046;-79
2022/01/27 13:26:44;;;;;;;9.88;3.63;;;11.70;99.90;;;;;;5046510;28;20044;-78
2022/01/27 13:29:18;;;;;;;8.48;3.55;;;11.70;99.90;;;;;;5043919;28;20053;-78
2022/01/27 13:31:47;;;;;;;4.65;3.10;;;11.70;99.90;;;;;;5042613;28;20063;-77
2022/01/27 13:34:15;;;;;;;4.90;3.00;;;11.80;99.90;;;;;;5043082;28;20044;-80
2022/01/27 13:36:56;;;;;;;7.32;3.20;;;11.90;99.90;;;;;;5042790;28;20065;-79
2022/01/27 13:39:46;;;;;;;5.55;3.00;;;12.00;99.90;;;;;;5042991;28;20044;-78
2022/01/27 13:42:12;;;;;;;6.32;2.75;;;12.20;99.90;;;;;;5045726;28;20053;-79
2022/01/27 13:44:54;;;;;;;5.03;2.55;;;12.50;99.90;;;;;;5041749;28;20041;-75
2022/01/27 13:47:25;;;;;;;6.32;3.42;;;12.90;99.90;;;;;;5032068;28;20046;-75
2022/01/27 13:50:03;;;;;;;4.70;2.90;;;13.10;99.90;;;;;;5028957;28;20408;-76
2022/01/27 13:52:49;;;;;;;4.03;2.63;;;13.30;99.90;;;;;;5042163;28;20525;-76
2022/01/27 13:55:24;;;;;;;5.18;2.65;;;13.50;99.90;;;;;;5045264;28;20045;-77
2022/01/27 13:58:00;;;;;;;4.45;2.60;;;13.60;99.90;;;;;;5041727;28;20552;-77
2022/01/27 14:00:37;;;;;;;5.22;2.80;;;13.60;99.90;;;;;;5035751;28;20526;-76
2022/01/27 14:03:12;;;;;;;8.07;2.97;;;13.40;99.90;;;;;;5042344;28;20481;-78
2022/01/27 14:05:58;;;;;;;4.50;2.90;;;13.20;99.90;;;;;;5037254;28;20045;-77
2022/01/27 14:08:44;;;;;;;5.93;2.65;;;13.10;99.90;;;;;;5044717;28;20560;-77
2022/01/27 14:11:20;;;;;;;4.25;2.47;;;13.00;99.90;;;;;;5030623;28;20053;-77
2022/01/27 14:13:55;;;;;;;4.57;3.00;;;12.90;99.90;;;;;;5032137;28;20052;-77
2022/01/27 14:16:27;;;;;;;7.20;3.00;;;12.90;99.90;;;;;;5026850;28;20057;-79